createdAt,value
2022-10-22T00:03:00.722Z,21.20
2022-10-22T00:08:03.928Z,19.20
2022-10-22T00:13:07.059Z,21.10
2022-10-22T00:18:09.829Z,19.00
2022-10-22T00:23:12.569Z,21.40
2022-10-22T00:28:15.534Z,19.50
2022-10-22T00:33:18.287Z,19.40
2022-10-22T00:38:21.638Z,19.90
2022-10-22T00:43:24.690Z,19.00
2022-10-22T00:48:30.215Z,19.50
2022-10-22T00:53:39.748Z,19.50
2022-10-22T00:58:46.623Z,18.30
2022-10-22T01:03:50.679Z,20.70
2022-10-22T01:09:11.465Z,19.50
2022-10-22T01:14:16.961Z,19.60
2022-10-22T01:19:56.965Z,18.60
2022-10-22T01:25:35.111Z,19.50
2022-10-22T01:30:39.573Z,20.00
2022-10-22T01:35:45.360Z,22.00
2022-10-22T01:40:49.741Z,19.70
2022-10-22T01:45:57.937Z,20.20
2022-10-22T01:51:35.588Z,20.00
2022-10-22T01:57:11.975Z,21.40
2022-10-22T02:02:43.120Z,20.70
2022-10-22T02:08:03.276Z,21.00
2022-10-22T02:13:11.062Z,21.30
2022-10-22T02:18:15.914Z,21.70
2022-10-22T02:23:20.602Z,22.70
2022-10-22T02:28:39.859Z,20.60
2022-10-22T02:33:47.915Z,22.30
2022-10-22T02:38:52.455Z,21.60
2022-10-22T02:43:55.930Z,22.00
2022-10-22T02:48:58.652Z,20.90
2022-10-22T02:54:01.484Z,24.50
2022-10-22T02:59:04.308Z,21.60
2022-10-22T03:04:07.085Z,21.60
2022-10-22T03:09:10.417Z,22.30
2022-10-22T03:14:13.579Z,23.30
2022-10-22T03:19:16.430Z,21.00
2022-10-22T03:24:26.190Z,22.60
2022-10-22T03:29:31.921Z,23.00
2022-10-22T03:34:34.696Z,24.70
2022-10-22T03:39:38.533Z,23.50
2022-10-22T03:44:41.632Z,22.20
2022-10-22T03:49:44.423Z,21.60
2022-10-22T03:54:47.292Z,24.60
2022-10-22T03:59:51.146Z,24.00
2022-10-22T04:04:53.914Z,23.60
2022-10-22T04:09:56.623Z,22.30
2022-10-22T04:14:59.356Z,24.30
2022-10-22T04:20:03.302Z,23.30
2022-10-22T04:25:06.275Z,23.00
2022-10-22T04:30:10.035Z,23.40
2022-10-22T04:35:12.880Z,25.60
2022-10-22T04:40:15.693Z,23.70
2022-10-22T04:45:18.486Z,23.30
2022-10-22T04:50:21.369Z,23.10
2022-10-22T04:55:24.155Z,25.60
2022-10-22T05:00:27.893Z,24.80
2022-10-22T05:05:30.628Z,24.70
2022-10-22T05:10:33.392Z,23.70
2022-10-22T05:15:36.127Z,26.70
2022-10-22T05:20:42.660Z,25.60
2022-10-22T05:25:45.418Z,24.60
2022-10-22T05:30:56.531Z,26.00
2022-10-22T05:36:00.509Z,26.70
2022-10-22T05:41:07.412Z,26.10
2022-10-22T05:46:23.074Z,24.00
2022-10-22T05:51:28.326Z,26.60
2022-10-22T05:56:32.587Z,28.00
2022-10-22T06:01:35.735Z,26.30
2022-10-22T06:06:40.199Z,27.80
2022-10-22T06:11:43.031Z,27.60
2022-10-22T06:16:45.849Z,27.70
2022-10-22T06:21:49.154Z,28.00
2022-10-22T06:31:55.243Z,25.80
2022-10-22T06:36:58.026Z,27.70
2022-10-22T06:42:00.780Z,28.30
2022-10-22T06:47:03.533Z,26.70
2022-10-22T06:52:06.304Z,29.00
2022-10-22T06:57:09.090Z,27.50
2022-10-22T07:02:11.868Z,27.70
2022-10-22T07:07:15.280Z,25.50
2022-10-22T07:12:18.060Z,29.70
2022-10-22T07:17:20.772Z,29.40
2022-10-22T07:22:23.514Z,28.00
2022-10-22T07:27:26.247Z,26.80
2022-10-22T07:32:28.986Z,26.10
2022-10-22T07:37:31.738Z,24.10
2022-10-22T07:42:34.486Z,25.40
2022-10-22T07:47:37.312Z,25.60
2022-10-22T07:52:40.285Z,26.40
2022-10-22T08:02:46.157Z,27.50
2022-10-22T08:12:51.562Z,29.60
2022-10-22T08:17:54.587Z,26.40
2022-10-22T08:33:03.783Z,21.80
2022-10-22T08:43:12.667Z,16.50
2022-10-22T08:48:38.438Z,14.20
2022-10-22T08:53:49.116Z,16.30
2022-10-22T08:59:10.844Z,14.40
2022-10-22T09:04:41.596Z,15.10
2022-10-22T09:09:51.161Z,14.00
2022-10-22T09:14:54.249Z,10.80
2022-10-22T09:25:29.664Z,12.10
2022-10-22T09:30:35.447Z,15.20
2022-10-22T09:35:53.421Z,21.20
2022-10-22T09:40:58.668Z,22.30
2022-10-22T09:46:04.848Z,24.00
2022-10-22T09:51:25.547Z,26.10
2022-10-22T09:56:35.641Z,23.30
2022-10-22T10:01:39.445Z,21.40
2022-10-22T10:06:44.353Z,18.30
2022-10-22T10:11:58.939Z,19.10
2022-10-22T10:17:19.782Z,16.60
2022-10-22T10:22:31.589Z,13.80
2022-10-22T10:27:46.070Z,18.80
2022-10-22T10:32:55.487Z,21.00
2022-10-22T10:38:09.107Z,22.20
2022-10-22T10:43:38.834Z,23.00
2022-10-22T10:48:56.179Z,20.30
2022-10-22T10:54:16.467Z,18.10
2022-10-22T10:59:28.892Z,17.00
2022-10-22T11:04:48.735Z,20.50
2022-10-22T11:10:00.713Z,18.60
2022-10-22T11:15:09.630Z,19.40
2022-10-22T11:20:24.990Z,22.40
2022-10-22T11:25:33.416Z,17.50
2022-10-22T11:30:38.358Z,18.40
2022-10-22T11:35:44.108Z,24.40
2022-10-22T11:40:57.940Z,22.70
2022-10-22T11:46:26.834Z,23.00
2022-10-22T11:51:38.960Z,24.40
2022-10-22T11:56:41.755Z,23.30
2022-10-22T12:01:48.289Z,25.70
2022-10-22T12:06:56.077Z,28.10
2022-10-22T12:12:05.092Z,26.90
2022-10-22T12:17:07.781Z,26.00
2022-10-22T12:22:10.495Z,26.60
2022-10-22T12:27:25.287Z,26.60
2022-10-22T12:32:41.547Z,31.70
2022-10-22T12:37:44.596Z,22.80
2022-10-22T12:42:49.645Z,27.10
2022-10-22T12:47:57.587Z,24.70
2022-10-22T12:53:00.441Z,25.60
2022-10-22T12:58:06.899Z,21.90
2022-10-22T13:03:26.183Z,20.20
2022-10-22T13:08:29.361Z,26.90
2022-10-22T13:13:45.655Z,23.70
2022-10-22T13:18:48.892Z,25.20
2022-10-22T13:23:58.266Z,25.70
2022-10-22T13:29:02.984Z,24.70
2022-10-22T13:34:11.895Z,26.10
2022-10-22T13:39:22.031Z,28.00
2022-10-22T13:44:24.812Z,28.80
2022-10-22T13:49:27.564Z,27.30
2022-10-22T13:54:30.387Z,30.40
2022-10-22T13:59:33.162Z,27.10
2022-10-22T14:04:39.230Z,29.30
2022-10-22T14:09:42.472Z,26.50
2022-10-22T14:14:45.302Z,24.70
2022-10-22T14:19:49.709Z,28.30
2022-10-22T14:24:52.550Z,26.70
2022-10-22T14:29:59.391Z,30.70
2022-10-22T14:35:02.525Z,27.30
2022-10-22T14:40:06.740Z,31.00
2022-10-22T14:45:22.357Z,28.20
2022-10-22T14:50:25.424Z,32.00
2022-10-22T14:55:29.166Z,29.20
2022-10-22T15:00:32.045Z,25.30
2022-10-22T15:05:36.433Z,28.40
2022-10-22T15:10:39.319Z,31.00
2022-10-22T15:15:42.082Z,27.70
2022-10-22T15:20:55.695Z,39.50
2022-10-22T15:25:58.823Z,31.50
2022-10-22T15:36:12.791Z,27.00
2022-10-22T15:41:15.889Z,31.80
2022-10-22T15:46:19.719Z,36.30
2022-10-22T15:51:22.569Z,33.10
2022-10-22T15:56:27.761Z,29.60
2022-10-22T16:01:32.513Z,31.30
2022-10-22T16:06:37.607Z,29.70
2022-10-22T16:11:41.505Z,27.50
2022-10-22T16:16:47.041Z,34.20
2022-10-22T16:21:51.775Z,38.40
2022-10-22T16:26:55.460Z,30.00
2022-10-22T16:31:58.189Z,34.00
2022-10-22T16:37:00.991Z,32.80
2022-10-22T16:42:03.978Z,31.70
2022-10-22T16:47:06.721Z,34.10
2022-10-22T16:52:09.543Z,36.80
2022-10-22T16:57:12.549Z,33.80
2022-10-22T17:07:18.083Z,32.70
2022-10-22T17:12:20.873Z,33.80
2022-10-22T17:17:23.611Z,32.90
2022-10-22T17:22:26.602Z,29.90
2022-10-22T17:27:29.346Z,31.50
2022-10-22T17:32:35.584Z,28.80
2022-10-22T17:37:38.582Z,27.60
2022-10-22T17:47:44.630Z,29.10
2022-10-22T17:52:47.393Z,26.90
2022-10-22T17:57:50.175Z,29.70
2022-10-22T18:02:52.965Z,28.60
2022-10-22T18:07:58.837Z,22.90
2022-10-22T18:13:01.596Z,23.00
2022-10-22T18:18:04.538Z,23.70
2022-10-22T18:23:07.661Z,23.40
2022-10-22T18:33:17.937Z,21.10
2022-10-22T18:38:23.818Z,20.70
2022-10-22T18:43:26.917Z,18.60
2022-10-22T18:48:29.740Z,18.10
2022-10-22T18:53:32.921Z,18.60
2022-10-22T18:58:45.027Z,17.20
2022-10-22T19:03:49.182Z,16.70
2022-10-22T19:08:52.110Z,18.60
2022-10-22T19:19:04.387Z,15.60
2022-10-22T19:24:07.394Z,20.50
2022-10-22T19:34:16.611Z,15.60
2022-10-22T19:39:20.322Z,14.50
2022-10-22T19:44:23.266Z,18.10
2022-10-22T19:49:26.090Z,18.10
2022-10-22T19:54:28.825Z,20.90
2022-10-22T19:59:32.283Z,17.00
2022-10-22T20:04:36.429Z,20.10
2022-10-22T20:09:39.314Z,16.80
2022-10-22T20:14:42.387Z,20.40
2022-10-22T20:24:47.828Z,24.20
2022-10-22T20:29:50.608Z,21.00
2022-10-22T20:34:53.331Z,23.00
2022-10-22T20:39:56.073Z,24.40
2022-10-22T20:44:58.806Z,22.40
2022-10-22T20:50:01.698Z,22.50
2022-10-22T20:55:05.533Z,23.00
2022-10-22T21:00:09.047Z,22.00
2022-10-22T21:05:11.841Z,22.10
2022-10-22T21:10:14.671Z,24.50
2022-10-22T21:15:17.432Z,24.00
2022-10-22T21:20:22.416Z,25.60
2022-10-22T21:25:27.661Z,22.60
2022-10-22T21:30:30.467Z,25.10
2022-10-22T21:35:33.607Z,27.50
2022-10-22T21:40:36.848Z,24.70
2022-10-22T21:45:39.692Z,24.40
2022-10-22T21:50:44.166Z,23.40
2022-10-22T21:55:46.925Z,22.70
2022-10-22T22:00:55.644Z,22.50
2022-10-22T22:06:00.892Z,21.00
2022-10-22T22:11:07.222Z,22.00
2022-10-22T22:16:13.759Z,19.20
2022-10-22T22:21:19.885Z,20.60
2022-10-22T22:26:28.469Z,23.90
2022-10-22T22:31:34.319Z,21.80
2022-10-22T22:36:40.258Z,20.40
2022-10-22T22:41:43.530Z,17.30
2022-10-22T22:46:46.438Z,22.70
2022-10-22T22:51:49.630Z,22.90
2022-10-22T22:56:52.389Z,22.30
2022-10-22T23:01:55.281Z,18.70
2022-10-22T23:06:58.182Z,23.50
2022-10-22T23:12:00.981Z,21.40
2022-10-22T23:17:03.807Z,18.20
2022-10-22T23:22:06.632Z,18.70
2022-10-22T23:27:10.149Z,17.20
2022-10-22T23:32:16.902Z,17.40
2022-10-22T23:37:19.807Z,17.80
2022-10-22T23:42:22.604Z,18.20
2022-10-22T23:47:25.358Z,15.80
2022-10-22T23:52:28.497Z,17.20
